KGJT/GJT METAR and TAF weather

Enter ICAO airport designator
Station Type Date Time Source
KGJT METAR 2020/07/13 13:53 UTC NOAA

KGJT 131353Z 12009G21KT 10SM CLR 26/07 A3001 RMK AO2 SLP081 T02560067


Station Type Date Time Source
KGJT Decoded METAR 2020/07/13 13:53 UTC NOAA

GRAND JUNCTION WALKER FIELD, CO, United States (KGJT) 39-08N 108-32W 1452M
Jul 13, 2020 - 09:53 AM EDT / 2020.07.13 1353 UTC
Wind: from the ESE (120 degrees) at 10 MPH (9 KT) gusting to 24 MPH (21 KT):0
Visibility: 10 mile(s):0
Sky conditions: clear
Temperature: 78.1 F (25.6 C)
Dew Point: 44.1 F (6.7 C)
Relative Humidity: 29%
Pressure (altimeter): 30.01 in. Hg (1016 hPa)
ob: KGJT 131353Z 12009G21KT 10SM CLR 26/07 A3001 RMK AO2 SLP081 T02560067
cycle: 14

Station Type Date Time Source
KGJT TAF 2020/07/13 12:40 UTC NOAA

TAF KGJT 131138Z 1312/1412 12009KT P6SM FEW080 BKN150
FM131600 17008KT P6SM FEW120 SCT200
FM131900 28011KT P6SM FEW110 SCT180
FM132100 26015G23KT P6SM VCTS FEW100CB SCT150
FM140300 31006KT P6SM BKN100

Example: see airport list